sensor_id;sensor_type;location;lat;lon;timestamp;P1;durP1;ratioP1;P2;durP2;ratioP2
22737;SDS011;11536;50.860;4.286;2022-07-29T00:01:39;5.47;;;1.00;;
22737;SDS011;11536;50.860;4.286;2022-07-29T00:04:05;6.47;;;1.10;;
22737;SDS011;11536;50.860;4.286;2022-07-29T00:06:30;3.22;;;1.00;;
22737;SDS011;11536;50.860;4.286;2022-07-29T00:08:56;4.93;;;0.90;;
22737;SDS011;11536;50.860;4.286;2022-07-29T00:11:22;4.35;;;0.98;;
22737;SDS011;11536;50.860;4.286;2022-07-29T00:13:47;3.80;;;1.00;;
22737;SDS011;11536;50.860;4.286;2022-07-29T00:16:13;4.88;;;1.20;;
22737;SDS011;11536;50.860;4.286;2022-07-29T00:18:38;3.50;;;1.00;;
22737;SDS011;11536;50.860;4.286;2022-07-29T00:21:04;4.35;;;1.17;;
22737;SDS011;11536;50.860;4.286;2022-07-29T00:23:30;4.88;;;1.10;;
22737;SDS011;11536;50.860;4.286;2022-07-29T00:25:55;4.57;;;1.00;;
22737;SDS011;11536;50.860;4.286;2022-07-29T00:28:21;3.88;;;1.00;;
22737;SDS011;11536;50.860;4.286;2022-07-29T00:30:46;6.20;;;1.48;;
22737;SDS011;11536;50.860;4.286;2022-07-29T00:33:12;5.25;;;0.93;;
22737;SDS011;11536;50.860;4.286;2022-07-29T00:35:38;6.05;;;1.40;;
22737;SDS011;11536;50.860;4.286;2022-07-29T00:38:10;5.90;;;1.23;;
22737;SDS011;11536;50.860;4.286;2022-07-29T00:40:39;4.93;;;1.17;;
22737;SDS011;11536;50.860;4.286;2022-07-29T00:43:05;3.78;;;1.23;;
22737;SDS011;11536;50.860;4.286;2022-07-29T00:45:31;6.38;;;1.30;;
22737;SDS011;11536;50.860;4.286;2022-07-29T00:47:57;3.70;;;0.98;;
22737;SDS011;11536;50.860;4.286;2022-07-29T00:50:23;4.65;;;1.50;;
22737;SDS011;11536;50.860;4.286;2022-07-29T00:52:49;4.03;;;1.10;;
22737;SDS011;11536;50.860;4.286;2022-07-29T00:55:15;4.75;;;1.40;;
22737;SDS011;11536;50.860;4.286;2022-07-29T00:57:42;4.75;;;1.20;;
22737;SDS011;11536;50.860;4.286;2022-07-29T01:00:10;6.03;;;1.45;;
22737;SDS011;11536;50.860;4.286;2022-07-29T01:02:38;3.67;;;1.08;;
22737;SDS011;11536;50.860;4.286;2022-07-29T01:05:04;3.85;;;0.88;;
22737;SDS011;11536;50.860;4.286;2022-07-29T01:07:31;2.60;;;1.00;;
22737;SDS011;11536;50.860;4.286;2022-07-29T01:09:59;5.07;;;1.20;;
22737;SDS011;11536;50.860;4.286;2022-07-29T01:12:27;6.50;;;1.10;;
22737;SDS011;11536;50.860;4.286;2022-07-29T01:14:56;4.93;;;1.05;;
22737;SDS011;11536;50.860;4.286;2022-07-29T01:17:27;3.00;;;0.90;;
22737;SDS011;11536;50.860;4.286;2022-07-29T01:20:10;3.28;;;0.88;;
22737;SDS011;11536;50.860;4.286;2022-07-29T01:34:24;3.85;;;1.10;;
22737;SDS011;11536;50.860;4.286;2022-07-29T01:37:11;3.45;;;1.23;;
22737;SDS011;11536;50.860;4.286;2022-07-29T01:39:47;4.68;;;0.98;;
22737;SDS011;11536;50.860;4.286;2022-07-29T01:44:57;4.30;;;1.10;;
22737;SDS011;11536;50.860;4.286;2022-07-29T01:47:39;3.88;;;1.10;;
22737;SDS011;11536;50.860;4.286;2022-07-29T01:50:13;3.83;;;1.10;;
22737;SDS011;11536;50.860;4.286;2022-07-29T01:52:43;5.07;;;1.20;;
22737;SDS011;11536;50.860;4.286;2022-07-29T01:55:17;3.17;;;0.98;;
22737;SDS011;11536;50.860;4.286;2022-07-29T01:57:47;3.22;;;0.98;;
22737;SDS011;11536;50.860;4.286;2022-07-29T02:00:15;4.32;;;1.08;;
22737;SDS011;11536;50.860;4.286;2022-07-29T02:02:42;6.53;;;0.98;;
22737;SDS011;11536;50.860;4.286;2022-07-29T02:05:11;4.03;;;0.95;;
22737;SDS011;11536;50.860;4.286;2022-07-29T02:07:42;3.00;;;1.10;;
22737;SDS011;11536;50.860;4.286;2022-07-29T02:10:11;4.88;;;1.20;;
22737;SDS011;11536;50.860;4.286;2022-07-29T02:12:38;4.28;;;1.17;;
22737;SDS011;11536;50.860;4.286;2022-07-29T02:15:05;3.78;;;0.90;;
22737;SDS011;11536;50.860;4.286;2022-07-29T02:17:36;3.13;;;1.00;;
22737;SDS011;11536;50.860;4.286;2022-07-29T02:20:06;4.95;;;1.20;;
22737;SDS011;11536;50.860;4.286;2022-07-29T02:22:34;3.35;;;0.98;;
22737;SDS011;11536;50.860;4.286;2022-07-29T02:25:02;2.85;;;1.10;;
22737;SDS011;11536;50.860;4.286;2022-07-29T02:27:29;4.78;;;1.23;;
22737;SDS011;11536;50.860;4.286;2022-07-29T02:29:58;6.90;;;1.10;;
22737;SDS011;11536;50.860;4.286;2022-07-29T02:32:27;4.00;;;1.00;;
22737;SDS011;11536;50.860;4.286;2022-07-29T02:34:54;3.78;;;1.13;;
22737;SDS011;11536;50.860;4.286;2022-07-29T02:37:21;3.25;;;1.02;;
22737;SDS011;11536;50.860;4.286;2022-07-29T02:39:48;4.25;;;1.15;;
22737;SDS011;11536;50.860;4.286;2022-07-29T02:42:15;4.35;;;1.20;;
22737;SDS011;11536;50.860;4.286;2022-07-29T02:44:42;4.10;;;1.10;;
22737;SDS011;11536;50.860;4.286;2022-07-29T02:47:19;9.60;;;1.30;;
22737;SDS011;11536;50.860;4.286;2022-07-29T02:50:09;3.45;;;1.33;;
22737;SDS011;11536;50.860;4.286;2022-07-29T02:52:54;6.45;;;1.30;;
22737;SDS011;11536;50.860;4.286;2022-07-29T03:01:11;4.20;;;1.30;;
22737;SDS011;11536;50.860;4.286;2022-07-29T03:03:40;9.35;;;1.27;;
22737;SDS011;11536;50.860;4.286;2022-07-29T03:06:09;2.78;;;1.00;;
22737;SDS011;11536;50.860;4.286;2022-07-29T03:08:38;3.67;;;1.35;;
22737;SDS011;11536;50.860;4.286;2022-07-29T03:11:05;4.20;;;1.42;;
22737;SDS011;11536;50.860;4.286;2022-07-29T03:13:32;5.38;;;1.30;;
22737;SDS011;11536;50.860;4.286;2022-07-29T03:15:58;3.80;;;1.30;;
22737;SDS011;11536;50.860;4.286;2022-07-29T03:18:24;8.10;;;1.80;;
22737;SDS011;11536;50.860;4.286;2022-07-29T03:20:50;5.10;;;1.55;;
22737;SDS011;11536;50.860;4.286;2022-07-29T03:23:19;7.60;;;1.55;;
22737;SDS011;11536;50.860;4.286;2022-07-29T03:25:47;5.78;;;1.40;;
22737;SDS011;11536;50.860;4.286;2022-07-29T03:28:14;5.65;;;1.40;;
22737;SDS011;11536;50.860;4.286;2022-07-29T03:30:40;4.15;;;1.33;;
22737;SDS011;11536;50.860;4.286;2022-07-29T03:33:05;4.20;;;1.30;;
22737;SDS011;11536;50.860;4.286;2022-07-29T03:35:31;6.03;;;1.60;;
22737;SDS011;11536;50.860;4.286;2022-07-29T03:37:57;4.70;;;1.67;;
22737;SDS011;11536;50.860;4.286;2022-07-29T03:40:31;3.33;;;1.33;;
22737;SDS011;11536;50.860;4.286;2022-07-29T03:43:07;7.35;;;1.58;;
22737;SDS011;11536;50.860;4.286;2022-07-29T03:45:34;6.18;;;1.70;;
22737;SDS011;11536;50.860;4.286;2022-07-29T03:48:02;4.05;;;1.45;;
22737;SDS011;11536;50.860;4.286;2022-07-29T03:50:34;6.47;;;1.63;;
22737;SDS011;11536;50.860;4.286;2022-07-29T03:53:00;4.90;;;1.20;;
22737;SDS011;11536;50.860;4.286;2022-07-29T03:55:29;3.58;;;1.20;;
22737;SDS011;11536;50.860;4.286;2022-07-29T03:58:02;5.88;;;1.73;;
22737;SDS011;11536;50.860;4.286;2022-07-29T04:00:28;4.80;;;1.45;;
22737;SDS011;11536;50.860;4.286;2022-07-29T04:02:55;8.00;;;1.98;;
22737;SDS011;11536;50.860;4.286;2022-07-29T04:05:22;4.88;;;1.70;;
22737;SDS011;11536;50.860;4.286;2022-07-29T04:07:47;3.83;;;1.40;;
22737;SDS011;11536;50.860;4.286;2022-07-29T04:10:13;3.95;;;1.30;;
22737;SDS011;11536;50.860;4.286;2022-07-29T04:12:42;8.57;;;1.83;;
22737;SDS011;11536;50.860;4.286;2022-07-29T04:15:08;6.72;;;1.75;;
22737;SDS011;11536;50.860;4.286;2022-07-29T04:17:34;6.07;;;1.90;;
22737;SDS011;11536;50.860;4.286;2022-07-29T04:19:59;5.65;;;1.60;;
22737;SDS011;11536;50.860;4.286;2022-07-29T04:22:25;6.22;;;1.63;;
22737;SDS011;11536;50.860;4.286;2022-07-29T04:24:51;5.95;;;1.83;;
22737;SDS011;11536;50.860;4.286;2022-07-29T04:27:16;6.63;;;2.00;;
22737;SDS011;11536;50.860;4.286;2022-07-29T04:29:42;7.32;;;1.75;;
22737;SDS011;11536;50.860;4.286;2022-07-29T04:32:07;6.95;;;1.52;;
22737;SDS011;11536;50.860;4.286;2022-07-29T04:34:33;5.43;;;1.75;;
22737;SDS011;11536;50.860;4.286;2022-07-29T04:36:59;6.22;;;1.75;;
22737;SDS011;11536;50.860;4.286;2022-07-29T04:39:24;6.97;;;2.20;;
22737;SDS011;11536;50.860;4.286;2022-07-29T04:41:50;5.95;;;2.00;;
22737;SDS011;11536;50.860;4.286;2022-07-29T04:44:16;5.10;;;1.52;;
22737;SDS011;11536;50.860;4.286;2022-07-29T04:46:42;6.35;;;1.77;;
22737;SDS011;11536;50.860;4.286;2022-07-29T04:49:07;6.22;;;1.35;;
22737;SDS011;11536;50.860;4.286;2022-07-29T04:51:33;6.93;;;2.25;;
22737;SDS011;11536;50.860;4.286;2022-07-29T04:53:59;6.75;;;1.70;;
22737;SDS011;11536;50.860;4.286;2022-07-29T04:56:25;5.53;;;1.77;;
22737;SDS011;11536;50.860;4.286;2022-07-29T04:58:51;4.25;;;1.80;;
22737;SDS011;11536;50.860;4.286;2022-07-29T05:01:17;4.47;;;1.80;;
22737;SDS011;11536;50.860;4.286;2022-07-29T05:03:43;4.65;;;1.85;;
22737;SDS011;11536;50.860;4.286;2022-07-29T05:06:10;5.93;;;1.98;;
22737;SDS011;11536;50.860;4.286;2022-07-29T05:08:36;4.53;;;1.70;;
22737;SDS011;11536;50.860;4.286;2022-07-29T05:11:02;5.55;;;1.85;;
22737;SDS011;11536;50.860;4.286;2022-07-29T05:13:28;5.78;;;1.95;;
22737;SDS011;11536;50.860;4.286;2022-07-29T05:15:54;8.20;;;1.90;;
22737;SDS011;11536;50.860;4.286;2022-07-29T05:18:19;3.92;;;1.60;;
22737;SDS011;11536;50.860;4.286;2022-07-29T05:20:45;5.53;;;1.60;;
22737;SDS011;11536;50.860;4.286;2022-07-29T05:23:10;6.70;;;1.90;;
22737;SDS011;11536;50.860;4.286;2022-07-29T05:25:37;6.40;;;2.08;;
22737;SDS011;11536;50.860;4.286;2022-07-29T05:28:03;4.82;;;1.60;;
22737;SDS011;11536;50.860;4.286;2022-07-29T05:30:29;7.75;;;2.30;;
22737;SDS011;11536;50.860;4.286;2022-07-29T05:32:55;4.68;;;1.85;;
22737;SDS011;11536;50.860;4.286;2022-07-29T05:35:20;3.78;;;1.67;;
22737;SDS011;11536;50.860;4.286;2022-07-29T05:37:46;6.53;;;2.10;;
22737;SDS011;11536;50.860;4.286;2022-07-29T05:40:11;7.03;;;2.00;;
22737;SDS011;11536;50.860;4.286;2022-07-29T05:42:37;6.88;;;2.53;;
22737;SDS011;11536;50.860;4.286;2022-07-29T05:45:03;6.22;;;2.28;;
22737;SDS011;11536;50.860;4.286;2022-07-29T05:47:30;5.45;;;2.15;;
22737;SDS011;11536;50.860;4.286;2022-07-29T05:49:55;7.25;;;1.98;;
22737;SDS011;11536;50.860;4.286;2022-07-29T05:52:22;7.28;;;2.08;;
22737;SDS011;11536;50.860;4.286;2022-07-29T05:54:50;6.60;;;2.28;;
22737;SDS011;11536;50.860;4.286;2022-07-29T05:57:16;7.45;;;2.22;;
22737;SDS011;11536;50.860;4.286;2022-07-29T05:59:42;4.72;;;2.03;;
22737;SDS011;11536;50.860;4.286;2022-07-29T06:02:08;6.35;;;1.92;;
22737;SDS011;11536;50.860;4.286;2022-07-29T06:04:33;6.15;;;2.28;;
22737;SDS011;11536;50.860;4.286;2022-07-29T06:06:59;6.72;;;2.28;;
22737;SDS011;11536;50.860;4.286;2022-07-29T06:09:24;5.47;;;1.98;;
22737;SDS011;11536;50.860;4.286;2022-07-29T06:11:51;6.28;;;2.15;;
22737;SDS011;11536;50.860;4.286;2022-07-29T06:14:17;7.60;;;2.33;;
22737;SDS011;11536;50.860;4.286;2022-07-29T06:16:43;5.38;;;2.10;;
22737;SDS011;11536;50.860;4.286;2022-07-29T06:19:08;6.60;;;2.25;;
22737;SDS011;11536;50.860;4.286;2022-07-29T06:21:34;8.52;;;2.40;;
22737;SDS011;11536;50.860;4.286;2022-07-29T06:24:00;5.82;;;2.10;;
22737;SDS011;11536;50.860;4.286;2022-07-29T06:26:25;8.93;;;2.63;;
22737;SDS011;11536;50.860;4.286;2022-07-29T06:28:51;6.13;;;2.78;;
22737;SDS011;11536;50.860;4.286;2022-07-29T06:31:17;6.82;;;2.60;;
22737;SDS011;11536;50.860;4.286;2022-07-29T06:33:42;6.18;;;2.33;;
22737;SDS011;11536;50.860;4.286;2022-07-29T06:36:08;4.57;;;1.80;;
22737;SDS011;11536;50.860;4.286;2022-07-29T06:38:34;7.38;;;2.20;;
22737;SDS011;11536;50.860;4.286;2022-07-29T06:41:00;6.20;;;2.38;;
22737;SDS011;11536;50.860;4.286;2022-07-29T06:43:31;6.35;;;2.20;;
22737;SDS011;11536;50.860;4.286;2022-07-29T06:46:00;5.25;;;2.42;;
22737;SDS011;11536;50.860;4.286;2022-07-29T06:48:27;6.60;;;2.33;;
22737;SDS011;11536;50.860;4.286;2022-07-29T06:50:53;6.50;;;2.25;;
22737;SDS011;11536;50.860;4.286;2022-07-29T06:53:19;3.92;;;1.65;;
22737;SDS011;11536;50.860;4.286;2022-07-29T06:55:45;6.40;;;2.50;;
22737;SDS011;11536;50.860;4.286;2022-07-29T06:58:11;6.70;;;2.45;;
22737;SDS011;11536;50.860;4.286;2022-07-29T07:00:37;6.80;;;2.13;;
22737;SDS011;11536;50.860;4.286;2022-07-29T07:03:03;7.20;;;2.80;;
22737;SDS011;11536;50.860;4.286;2022-07-29T07:05:28;5.10;;;2.22;;
22737;SDS011;11536;50.860;4.286;2022-07-29T07:07:54;4.18;;;1.80;;
22737;SDS011;11536;50.860;4.286;2022-07-29T07:10:19;5.40;;;2.15;;
22737;SDS011;11536;50.860;4.286;2022-07-29T07:12:45;6.60;;;2.28;;
22737;SDS011;11536;50.860;4.286;2022-07-29T07:15:11;5.70;;;2.40;;
22737;SDS011;11536;50.860;4.286;2022-07-29T07:17:36;6.55;;;2.60;;
22737;SDS011;11536;50.860;4.286;2022-07-29T07:20:03;7.20;;;2.42;;
22737;SDS011;11536;50.860;4.286;2022-07-29T07:22:30;6.00;;;1.98;;
22737;SDS011;11536;50.860;4.286;2022-07-29T07:24:55;5.72;;;2.42;;
22737;SDS011;11536;50.860;4.286;2022-07-29T07:27:21;10.60;;;2.38;;
22737;SDS011;11536;50.860;4.286;2022-07-29T07:29:47;5.40;;;2.10;;
22737;SDS011;11536;50.860;4.286;2022-07-29T07:32:12;6.82;;;2.40;;
22737;SDS011;11536;50.860;4.286;2022-07-29T07:34:39;7.20;;;2.40;;
22737;SDS011;11536;50.860;4.286;2022-07-29T07:37:05;4.97;;;2.47;;
22737;SDS011;11536;50.860;4.286;2022-07-29T07:39:31;5.22;;;2.72;;
22737;SDS011;11536;50.860;4.286;2022-07-29T07:41:56;6.40;;;2.45;;
22737;SDS011;11536;50.860;4.286;2022-07-29T07:44:22;5.78;;;2.08;;
22737;SDS011;11536;50.860;4.286;2022-07-29T07:46:47;5.72;;;2.20;;
22737;SDS011;11536;50.860;4.286;2022-07-29T07:49:13;7.20;;;2.28;;
22737;SDS011;11536;50.860;4.286;2022-07-29T07:51:38;5.57;;;2.33;;
22737;SDS011;11536;50.860;4.286;2022-07-29T07:54:04;7.38;;;2.35;;
22737;SDS011;11536;50.860;4.286;2022-07-29T07:56:30;9.18;;;2.53;;
22737;SDS011;11536;50.860;4.286;2022-07-29T07:58:55;6.63;;;2.40;;
22737;SDS011;11536;50.860;4.286;2022-07-29T08:01:21;6.78;;;2.40;;
22737;SDS011;11536;50.860;4.286;2022-07-29T08:03:48;6.70;;;2.50;;
22737;SDS011;11536;50.860;4.286;2022-07-29T08:06:16;5.97;;;2.72;;
22737;SDS011;11536;50.860;4.286;2022-07-29T08:08:42;6.68;;;2.20;;
22737;SDS011;11536;50.860;4.286;2022-07-29T08:11:08;5.88;;;2.67;;
22737;SDS011;11536;50.860;4.286;2022-07-29T08:13:34;5.60;;;2.10;;
22737;SDS011;11536;50.860;4.286;2022-07-29T08:16:00;6.00;;;2.00;;
22737;SDS011;11536;50.860;4.286;2022-07-29T08:18:30;5.20;;;2.05;;
22737;SDS011;11536;50.860;4.286;2022-07-29T08:20:56;5.80;;;2.00;;
22737;SDS011;11536;50.860;4.286;2022-07-29T08:23:22;6.95;;;2.65;;
22737;SDS011;11536;50.860;4.286;2022-07-29T08:25:48;5.82;;;2.63;;
22737;SDS011;11536;50.860;4.286;2022-07-29T08:28:14;5.10;;;2.25;;
22737;SDS011;11536;50.860;4.286;2022-07-29T08:30:40;7.07;;;2.47;;
22737;SDS011;11536;50.860;4.286;2022-07-29T08:33:05;5.93;;;2.13;;
22737;SDS011;11536;50.860;4.286;2022-07-29T08:35:31;6.07;;;2.58;;
22737;SDS011;11536;50.860;4.286;2022-07-29T08:37:57;7.35;;;2.10;;
22737;SDS011;11536;50.860;4.286;2022-07-29T08:40:23;5.70;;;2.35;;
22737;SDS011;11536;50.860;4.286;2022-07-29T08:42:49;5.68;;;2.17;;
22737;SDS011;11536;50.860;4.286;2022-07-29T08:45:15;6.20;;;2.60;;
22737;SDS011;11536;50.860;4.286;2022-07-29T08:47:41;4.50;;;1.85;;
22737;SDS011;11536;50.860;4.286;2022-07-29T08:50:09;7.35;;;2.35;;
22737;SDS011;11536;50.860;4.286;2022-07-29T08:52:37;7.65;;;2.10;;
22737;SDS011;11536;50.860;4.286;2022-07-29T08:55:04;5.20;;;1.85;;
22737;SDS011;11536;50.860;4.286;2022-07-29T08:57:32;4.25;;;1.80;;
22737;SDS011;11536;50.860;4.286;2022-07-29T08:59:59;4.15;;;2.00;;
22737;SDS011;11536;50.860;4.286;2022-07-29T09:02:26;4.18;;;1.60;;
22737;SDS011;11536;50.860;4.286;2022-07-29T09:04:58;4.95;;;1.85;;
22737;SDS011;11536;50.860;4.286;2022-07-29T09:07:26;5.90;;;1.58;;
22737;SDS011;11536;50.860;4.286;2022-07-29T09:09:52;6.35;;;2.55;;
22737;SDS011;11536;50.860;4.286;2022-07-29T09:12:18;4.90;;;1.98;;
22737;SDS011;11536;50.860;4.286;2022-07-29T09:14:44;6.43;;;1.98;;
22737;SDS011;11536;50.860;4.286;2022-07-29T09:17:09;5.38;;;1.77;;
22737;SDS011;11536;50.860;4.286;2022-07-29T09:19:36;5.22;;;1.88;;
22737;SDS011;11536;50.860;4.286;2022-07-29T09:22:05;10.60;;;1.80;;
22737;SDS011;11536;50.860;4.286;2022-07-29T09:27:08;5.00;;;1.92;;
22737;SDS011;11536;50.860;4.286;2022-07-29T09:29:44;3.80;;;1.75;;
22737;SDS011;11536;50.860;4.286;2022-07-29T09:32:10;4.57;;;1.67;;
22737;SDS011;11536;50.860;4.286;2022-07-29T09:34:36;4.75;;;1.52;;
22737;SDS011;11536;50.860;4.286;2022-07-29T09:37:02;5.70;;;1.70;;
22737;SDS011;11536;50.860;4.286;2022-07-29T09:39:39;7.10;;;2.30;;
22737;SDS011;11536;50.860;4.286;2022-07-29T09:42:11;4.32;;;1.70;;
22737;SDS011;11536;50.860;4.286;2022-07-29T09:44:45;3.72;;;1.50;;
22737;SDS011;11536;50.860;4.286;2022-07-29T09:47:16;7.55;;;2.10;;
22737;SDS011;11536;50.860;4.286;2022-07-29T09:52:27;5.82;;;2.50;;
22737;SDS011;11536;50.860;4.286;2022-07-29T09:55:07;8.35;;;2.00;;
22737;SDS011;11536;50.860;4.286;2022-07-29T09:57:34;5.03;;;1.95;;
22737;SDS011;11536;50.860;4.286;2022-07-29T10:02:29;6.60;;;2.53;;
22737;SDS011;11536;50.860;4.286;2022-07-29T10:04:55;6.78;;;2.20;;
22737;SDS011;11536;50.860;4.286;2022-07-29T10:07:21;5.07;;;1.95;;
22737;SDS011;11536;50.860;4.286;2022-07-29T10:09:54;4.72;;;2.30;;
22737;SDS011;11536;50.860;4.286;2022-07-29T10:12:21;5.93;;;2.40;;
22737;SDS011;11536;50.860;4.286;2022-07-29T10:14:47;4.25;;;1.90;;
22737;SDS011;11536;50.860;4.286;2022-07-29T10:17:14;6.82;;;2.28;;
22737;SDS011;11536;50.860;4.286;2022-07-29T10:19:41;6.65;;;2.60;;
22737;SDS011;11536;50.860;4.286;2022-07-29T10:22:08;11.02;;;2.40;;
22737;SDS011;11536;50.860;4.286;2022-07-29T10:24:35;5.78;;;2.40;;
22737;SDS011;11536;50.860;4.286;2022-07-29T10:27:03;7.15;;;2.60;;
22737;SDS011;11536;50.860;4.286;2022-07-29T10:29:30;5.82;;;2.47;;
22737;SDS011;11536;50.860;4.286;2022-07-29T10:37:25;10.50;;;2.80;;
22737;SDS011;11536;50.860;4.286;2022-07-29T10:42:48;7.38;;;3.42;;
22737;SDS011;11536;50.860;4.286;2022-07-29T10:45:16;7.03;;;3.35;;
22737;SDS011;11536;50.860;4.286;2022-07-29T10:47:42;7.25;;;2.53;;
22737;SDS011;11536;50.860;4.286;2022-07-29T10:50:08;7.15;;;2.75;;
22737;SDS011;11536;50.860;4.286;2022-07-29T10:55:34;7.10;;;2.28;;
22737;SDS011;11536;50.860;4.286;2022-07-29T10:58:24;10.55;;;2.30;;
22737;SDS011;11536;50.860;4.286;2022-07-29T11:00:50;6.68;;;2.50;;
22737;SDS011;11536;50.860;4.286;2022-07-29T11:06:10;5.50;;;1.98;;
22737;SDS011;11536;50.860;4.286;2022-07-29T11:08:36;7.20;;;2.10;;
22737;SDS011;11536;50.860;4.286;2022-07-29T11:13:53;7.97;;;2.03;;
22737;SDS011;11536;50.860;4.286;2022-07-29T11:16:22;7.47;;;2.83;;
22737;SDS011;11536;50.860;4.286;2022-07-29T11:21:35;5.82;;;2.00;;
22737;SDS011;11536;50.860;4.286;2022-07-29T11:24:14;5.78;;;2.42;;
22737;SDS011;11536;50.860;4.286;2022-07-29T11:26:41;7.68;;;2.88;;
22737;SDS011;11536;50.860;4.286;2022-07-29T11:31:51;5.97;;;2.58;;
22737;SDS011;11536;50.860;4.286;2022-07-29T11:34:21;6.15;;;2.22;;
22737;SDS011;11536;50.860;4.286;2022-07-29T11:39:35;7.40;;;2.63;;
22737;SDS011;11536;50.860;4.286;2022-07-29T11:47:21;6.75;;;1.90;;
22737;SDS011;11536;50.860;4.286;2022-07-29T11:49:47;5.63;;;1.70;;
22737;SDS011;11536;50.860;4.286;2022-07-29T11:52:15;4.75;;;1.52;;
22737;SDS011;11536;50.860;4.286;2022-07-29T11:54:42;5.60;;;1.50;;
22737;SDS011;11536;50.860;4.286;2022-07-29T11:57:08;8.30;;;2.03;;
22737;SDS011;11536;50.860;4.286;2022-07-29T11:59:40;7.82;;;2.08;;
22737;SDS011;11536;50.860;4.286;2022-07-29T12:02:07;7.55;;;1.85;;
22737;SDS011;11536;50.860;4.286;2022-07-29T12:04:47;7.57;;;2.05;;
22737;SDS011;11536;50.860;4.286;2022-07-29T12:07:13;7.25;;;2.28;;
22737;SDS011;11536;50.860;4.286;2022-07-29T12:09:39;5.78;;;2.03;;
22737;SDS011;11536;50.860;4.286;2022-07-29T12:12:05;5.88;;;2.30;;
22737;SDS011;11536;50.860;4.286;2022-07-29T12:14:31;7.00;;;1.92;;
22737;SDS011;11536;50.860;4.286;2022-07-29T12:16:58;7.28;;;2.33;;
22737;SDS011;11536;50.860;4.286;2022-07-29T12:19:24;6.80;;;2.42;;
22737;SDS011;11536;50.860;4.286;2022-07-29T12:21:51;8.43;;;2.00;;
22737;SDS011;11536;50.860;4.286;2022-07-29T12:24:19;7.20;;;2.22;;
22737;SDS011;11536;50.860;4.286;2022-07-29T12:26:49;6.90;;;2.10;;
22737;SDS011;11536;50.860;4.286;2022-07-29T12:29:16;6.15;;;2.22;;
22737;SDS011;11536;50.860;4.286;2022-07-29T12:31:42;6.28;;;2.30;;
22737;SDS011;11536;50.860;4.286;2022-07-29T12:34:10;5.90;;;2.17;;
22737;SDS011;11536;50.860;4.286;2022-07-29T12:36:36;5.55;;;2.10;;
22737;SDS011;11536;50.860;4.286;2022-07-29T12:39:02;5.28;;;1.42;;
22737;SDS011;11536;50.860;4.286;2022-07-29T12:41:29;5.13;;;1.50;;
22737;SDS011;11536;50.860;4.286;2022-07-29T12:43:55;7.28;;;1.75;;
22737;SDS011;11536;50.860;4.286;2022-07-29T12:46:21;3.85;;;1.27;;
22737;SDS011;11536;50.860;4.286;2022-07-29T12:48:50;6.50;;;1.60;;
22737;SDS011;11536;50.860;4.286;2022-07-29T12:51:29;5.28;;;1.80;;
22737;SDS011;11536;50.860;4.286;2022-07-29T12:56:32;5.53;;;1.73;;
22737;SDS011;11536;50.860;4.286;2022-07-29T12:58:58;5.75;;;1.58;;
22737;SDS011;11536;50.860;4.286;2022-07-29T13:01:25;5.80;;;1.45;;
22737;SDS011;11536;50.860;4.286;2022-07-29T13:03:58;5.93;;;1.45;;
22737;SDS011;11536;50.860;4.286;2022-07-29T13:06:33;5.00;;;1.45;;
22737;SDS011;11536;50.860;4.286;2022-07-29T13:11:36;6.10;;;1.52;;
22737;SDS011;11536;50.860;4.286;2022-07-29T13:14:04;4.57;;;1.50;;
22737;SDS011;11536;50.860;4.286;2022-07-29T13:16:31;4.40;;;1.50;;
22737;SDS011;11536;50.860;4.286;2022-07-29T13:19:31;8.35;;;1.70;;
22737;SDS011;11536;50.860;4.286;2022-07-29T13:21:57;8.82;;;1.50;;
22737;SDS011;11536;50.860;4.286;2022-07-29T13:24:22;3.50;;;1.30;;
22737;SDS011;11536;50.860;4.286;2022-07-29T13:26:48;4.60;;;1.38;;
22737;SDS011;11536;50.860;4.286;2022-07-29T13:29:13;4.45;;;1.88;;
22737;SDS011;11536;50.860;4.286;2022-07-29T13:31:39;5.07;;;1.58;;
22737;SDS011;11536;50.860;4.286;2022-07-29T13:34:04;4.72;;;1.15;;
22737;SDS011;11536;50.860;4.286;2022-07-29T13:36:30;5.20;;;1.58;;
22737;SDS011;11536;50.860;4.286;2022-07-29T13:38:56;7.07;;;1.70;;
22737;SDS011;11536;50.860;4.286;2022-07-29T13:41:22;3.22;;;1.38;;
22737;SDS011;11536;50.860;4.286;2022-07-29T13:43:47;5.60;;;1.40;;
22737;SDS011;11536;50.860;4.286;2022-07-29T13:46:13;4.25;;;1.50;;
22737;SDS011;11536;50.860;4.286;2022-07-29T13:48:38;6.47;;;1.50;;
22737;SDS011;11536;50.860;4.286;2022-07-29T13:51:04;7.80;;;1.63;;
22737;SDS011;11536;50.860;4.286;2022-07-29T13:53:29;6.55;;;1.65;;
22737;SDS011;11536;50.860;4.286;2022-07-29T13:55:55;6.53;;;1.40;;
22737;SDS011;11536;50.860;4.286;2022-07-29T13:58:21;4.65;;;1.60;;
22737;SDS011;11536;50.860;4.286;2022-07-29T14:00:47;3.92;;;1.30;;
22737;SDS011;11536;50.860;4.286;2022-07-29T14:03:12;4.72;;;1.65;;
22737;SDS011;11536;50.860;4.286;2022-07-29T14:05:38;5.00;;;1.33;;
22737;SDS011;11536;50.860;4.286;2022-07-29T14:08:03;7.00;;;1.52;;
22737;SDS011;11536;50.860;4.286;2022-07-29T14:10:29;2.63;;;1.00;;
22737;SDS011;11536;50.860;4.286;2022-07-29T14:12:54;3.72;;;1.50;;
22737;SDS011;11536;50.860;4.286;2022-07-29T14:15:20;5.07;;;1.38;;
22737;SDS011;11536;50.860;4.286;2022-07-29T14:17:46;4.75;;;1.25;;
22737;SDS011;11536;50.860;4.286;2022-07-29T14:20:11;3.80;;;1.50;;
22737;SDS011;11536;50.860;4.286;2022-07-29T14:22:37;3.92;;;1.20;;
22737;SDS011;11536;50.860;4.286;2022-07-29T14:25:03;5.88;;;1.25;;
22737;SDS011;11536;50.860;4.286;2022-07-29T14:27:28;5.07;;;1.20;;
22737;SDS011;11536;50.860;4.286;2022-07-29T14:29:54;5.20;;;0.90;;
22737;SDS011;11536;50.860;4.286;2022-07-29T14:32:20;4.93;;;1.17;;
22737;SDS011;11536;50.860;4.286;2022-07-29T14:34:45;6.95;;;1.30;;
22737;SDS011;11536;50.860;4.286;2022-07-29T14:37:11;2.25;;;1.00;;
22737;SDS011;11536;50.860;4.286;2022-07-29T14:39:36;4.85;;;1.40;;
22737;SDS011;11536;50.860;4.286;2022-07-29T14:42:02;6.43;;;1.40;;
22737;SDS011;11536;50.860;4.286;2022-07-29T14:44:28;3.83;;;1.27;;
22737;SDS011;11536;50.860;4.286;2022-07-29T14:46:56;4.32;;;1.40;;
22737;SDS011;11536;50.860;4.286;2022-07-29T14:49:24;3.67;;;1.30;;
22737;SDS011;11536;50.860;4.286;2022-07-29T14:51:50;4.28;;;1.50;;
22737;SDS011;11536;50.860;4.286;2022-07-29T14:54:16;3.50;;;1.23;;
22737;SDS011;11536;50.860;4.286;2022-07-29T14:56:42;5.20;;;1.60;;
22737;SDS011;11536;50.860;4.286;2022-07-29T14:59:07;3.55;;;1.52;;
22737;SDS011;11536;50.860;4.286;2022-07-29T15:01:33;4.32;;;1.65;;
22737;SDS011;11536;50.860;4.286;2022-07-29T15:03:58;6.03;;;1.40;;
22737;SDS011;11536;50.860;4.286;2022-07-29T15:06:24;4.43;;;1.73;;
22737;SDS011;11536;50.860;4.286;2022-07-29T15:08:50;4.55;;;1.60;;
22737;SDS011;11536;50.860;4.286;2022-07-29T15:11:15;4.35;;;1.50;;
22737;SDS011;11536;50.860;4.286;2022-07-29T15:13:41;5.53;;;2.08;;
22737;SDS011;11536;50.860;4.286;2022-07-29T15:16:07;4.07;;;1.80;;
22737;SDS011;11536;50.860;4.286;2022-07-29T15:18:32;6.32;;;2.00;;
22737;SDS011;11536;50.860;4.286;2022-07-29T15:20:58;7.53;;;2.60;;
22737;SDS011;11536;50.860;4.286;2022-07-29T15:23:25;6.85;;;2.25;;
22737;SDS011;11536;50.860;4.286;2022-07-29T15:25:51;7.35;;;2.40;;
22737;SDS011;11536;50.860;4.286;2022-07-29T15:28:16;5.25;;;2.13;;
22737;SDS011;11536;50.860;4.286;2022-07-29T15:30:42;6.80;;;2.60;;
22737;SDS011;11536;50.860;4.286;2022-07-29T15:33:08;5.80;;;2.40;;
22737;SDS011;11536;50.860;4.286;2022-07-29T15:35:34;6.72;;;2.00;;
22737;SDS011;11536;50.860;4.286;2022-07-29T15:38:00;3.90;;;1.83;;
22737;SDS011;11536;50.860;4.286;2022-07-29T15:40:26;6.10;;;2.60;;
22737;SDS011;11536;50.860;4.286;2022-07-29T15:42:52;6.55;;;2.30;;
22737;SDS011;11536;50.860;4.286;2022-07-29T15:45:17;4.95;;;2.10;;
22737;SDS011;11536;50.860;4.286;2022-07-29T15:47:43;8.23;;;2.60;;
22737;SDS011;11536;50.860;4.286;2022-07-29T15:50:09;7.82;;;2.35;;
22737;SDS011;11536;50.860;4.286;2022-07-29T15:52:41;7.00;;;2.70;;